Time;durP1;ratioP1;P1;durP2;ratioP2;P2;SDS_P1;SDS_P2;PMS_P1;PMS_P2;Temp;Humidity;BMP_temperature;BMP_pressure;BME280_temperature;BME280_humidity;BME280_pressure;Samples;Min_cycle;Max_cycle;Signal;HPM_P1;HPM_P2
2023/08/04 00:01:51;;;;;;;11.50;4.50;;;16.60;66.90;;;;;;5050223;28;20417;-72
2023/08/04 00:04:16;;;;;;;14.55;4.07;;;16.60;67.60;;;;;;5050478;28;20940;-71
2023/08/04 00:06:42;;;;;;;11.20;3.70;;;16.60;66.80;;;;;;5050812;28;20597;-71
2023/08/04 00:09:08;;;;;;;12.27;4.35;;;16.60;66.90;;;;;;5050370;28;20393;-71
2023/08/04 00:11:34;;;;;;;8.57;3.90;;;16.60;67.70;;;;;;5050365;28;20389;-72
2023/08/04 00:13:59;;;;;;;14.88;4.53;;;16.70;66.20;;;;;;5050205;28;20816;-72
2023/08/04 00:16:25;;;;;;;13.70;4.10;;;16.70;65.60;;;;;;5050521;28;20420;-71
2023/08/04 00:18:50;;;;;;;11.33;3.50;;;16.60;67.10;;;;;;5050551;28;20386;-72
2023/08/04 00:21:16;;;;;;;9.93;3.93;;;16.60;66.60;;;;;;5050111;28;20811;-71
2023/08/04 00:23:41;;;;;;;8.30;4.05;;;16.60;66.30;;;;;;5050424;28;20846;-71
2023/08/04 00:26:07;;;;;;;13.93;4.40;;;16.50;67.60;;;;;;5050317;28;20377;-72
2023/08/04 00:28:32;;;;;;;14.90;4.60;;;16.50;67.40;;;;;;5050311;28;20527;-72
2023/08/04 00:30:58;;;;;;;9.45;4.00;;;16.50;66.80;;;;;;5050201;28;20412;-71
2023/08/04 00:33:24;;;;;;;14.77;4.30;;;16.60;66.10;;;;;;5050368;28;20405;-71
2023/08/04 00:35:49;;;;;;;15.07;4.07;;;16.60;65.30;;;;;;5050288;28;20420;-71
2023/08/04 00:38:15;;;;;;;10.47;4.60;;;16.50;66.10;;;;;;5050140;28;20392;-71
2023/08/04 00:40:40;;;;;;;16.50;4.80;;;16.50;66.10;;;;;;5050197;28;20412;-72
2023/08/04 00:43:07;;;;;;;9.00;3.73;;;16.60;66.10;;;;;;5049869;28;20381;-70
2023/08/04 00:45:33;;;;;;;12.02;3.90;;;16.50;67.10;;;;;;5050376;28;20885;-71
2023/08/04 00:48:00;;;;;;;10.23;4.43;;;16.50;66.60;;;;;;5050494;28;20394;-72
2023/08/04 00:50:27;;;;;;;23.95;4.57;;;16.50;66.80;;;;;;5050833;28;20881;-71
2023/08/04 00:52:53;;;;;;;18.55;4.55;;;16.50;66.30;;;;;;5050351;28;20402;-71
2023/08/04 00:55:18;;;;;;;21.83;4.90;;;16.50;66.20;;;;;;5050242;28;20427;-71
2023/08/04 00:57:44;;;;;;;9.67;3.90;;;16.50;66.50;;;;;;5050223;28;20411;-71
2023/08/04 01:00:10;;;;;;;17.93;4.70;;;16.40;66.20;;;;;;5050054;28;20400;-71
2023/08/04 01:02:35;;;;;;;12.50;4.47;;;16.50;64.90;;;;;;5049869;28;20389;-71
2023/08/04 01:05:05;;;;;;;16.60;4.47;;;16.40;65.20;;;;;;5032151;28;20396;-70
2023/08/04 01:07:38;;;;;;;12.10;4.38;;;16.40;65.70;;;;;;5049225;28;20401;-71
2023/08/04 01:10:14;;;;;;;12.73;4.22;;;16.30;67.10;;;;;;5049736;28;20420;-72
2023/08/04 01:13:06;;;;;;;11.25;4.35;;;16.20;67.80;;;;;;5050962;28;20432;-71
2023/08/04 01:15:33;;;;;;;11.15;4.75;;;16.10;69.60;;;;;;5048938;28;20447;-71
2023/08/04 01:17:58;;;;;;;11.60;4.50;;;16.00;70.30;;;;;;5053452;28;20393;-70
2023/08/04 01:20:25;;;;;;;16.40;4.80;;;16.00;70.10;;;;;;5053333;28;20393;-71
2023/08/04 01:22:51;;;;;;;20.03;5.20;;;15.90;70.70;;;;;;5053593;28;20404;-71
2023/08/04 01:25:18;;;;;;;22.00;5.05;;;15.90;71.30;;;;;;5036095;28;20956;-71
2023/08/04 01:27:58;;;;;;;13.63;4.85;;;15.80;72.50;;;;;;5053730;28;20396;-71
2023/08/04 01:30:25;;;;;;;14.88;5.03;;;15.80;73.00;;;;;;5034411;28;20392;-72
2023/08/04 01:32:51;;;;;;;15.33;5.50;;;15.80;73.20;;;;;;5017782;28;20402;-72
2023/08/04 01:35:17;;;;;;;19.00;5.20;;;15.70;74.00;;;;;;5035714;28;20486;-73
2023/08/04 01:37:43;;;;;;;14.90;5.37;;;15.70;74.70;;;;;;5034258;28;20391;-72
2023/08/04 01:40:10;;;;;;;13.63;4.60;;;15.70;75.00;;;;;;5035745;28;20406;-73
2023/08/04 01:42:36;;;;;;;14.75;5.20;;;15.80;74.10;;;;;;5035113;28;20410;-73
2023/08/04 01:45:02;;;;;;;15.52;5.60;;;15.80;73.60;;;;;;5033993;28;20868;-73
2023/08/04 01:47:27;;;;;;;15.63;5.45;;;15.80;73.30;;;;;;5016313;28;20466;-73
2023/08/04 01:49:53;;;;;;;14.80;5.30;;;15.80;73.50;;;;;;5016155;28;20387;-72
2023/08/04 01:52:20;;;;;;;15.93;5.20;;;15.80;73.60;;;;;;5015436;28;20847;-72
2023/08/04 01:54:46;;;;;;;14.27;5.40;;;15.80;73.50;;;;;;5033935;28;20414;-72
2023/08/04 01:57:11;;;;;;;16.60;5.63;;;15.80;73.50;;;;;;5034082;28;20391;-73
2023/08/04 01:59:37;;;;;;;12.27;4.70;;;15.90;73.70;;;;;;5033786;28;20390;-73
2023/08/04 02:02:02;;;;;;;22.35;5.63;;;15.80;73.90;;;;;;5033316;28;20470;-73
2023/08/04 02:04:28;;;;;;;14.27;5.68;;;15.90;73.50;;;;;;5035117;28;20386;-73
2023/08/04 02:06:53;;;;;;;18.03;5.90;;;15.80;74.40;;;;;;5042675;28;20414;-73
2023/08/04 02:09:19;;;;;;;17.73;6.20;;;15.80;74.60;;;;;;5042760;28;20844;-73
2023/08/04 02:11:45;;;;;;;19.52;6.03;;;15.70;75.80;;;;;;5042149;28;20390;-73
2023/08/04 02:14:11;;;;;;;23.70;5.77;;;16.00;73.10;;;;;;5041101;28;20836;-73
2023/08/04 02:16:36;;;;;;;18.77;5.80;;;15.90;74.00;;;;;;5041203;28;20387;-73
2023/08/04 02:19:09;;;;;;;13.75;5.90;;;15.80;75.00;;;;;;5038627;28;20786;-72
2023/08/04 02:21:36;;;;;;;15.45;6.30;;;15.80;75.00;;;;;;5032930;28;20462;-71
2023/08/04 02:24:02;;;;;;;16.77;6.38;;;15.70;76.10;;;;;;5031573;28;20395;-73
2023/08/04 02:26:28;;;;;;;18.67;7.60;;;15.70;77.20;;;;;;5032985;28;20383;-73
2023/08/04 02:28:54;;;;;;;25.52;8.40;;;15.80;76.90;;;;;;5033088;28;20379;-73
2023/08/04 02:31:23;;;;;;;17.50;8.68;;;16.00;73.50;;;;;;5032465;28;20394;-73
2023/08/04 02:33:49;;;;;;;18.67;8.10;;;16.00;71.60;;;;;;5032544;28;20956;-73
2023/08/04 02:36:14;;;;;;;19.33;7.00;;;16.00;72.30;;;;;;5032718;28;20382;-73
2023/08/04 02:38:40;;;;;;;18.73;6.90;;;15.90;73.60;;;;;;5032779;28;20873;-72
2023/08/04 02:41:08;;;;;;;17.02;6.32;;;15.80;75.30;;;;;;5032748;28;20415;-72
2023/08/04 02:43:34;;;;;;;15.00;6.22;;;15.70;76.10;;;;;;5033139;28;20387;-72
2023/08/04 02:45:59;;;;;;;21.00;6.82;;;15.70;76.70;;;;;;5033027;28;20455;-72
2023/08/04 02:48:25;;;;;;;18.37;6.30;;;15.70;76.80;;;;;;5032508;28;20387;-73
2023/08/04 02:51:08;;;;;;;23.20;6.90;;;15.70;77.30;;;;;;5032475;28;20495;-72
2023/08/04 02:53:35;;;;;;;18.63;6.63;;;15.70;77.00;;;;;;5032316;28;20407;-72
2023/08/04 02:56:21;;;;;;;19.90;7.25;;;15.70;77.90;;;;;;5032544;28;20399;-72
2023/08/04 02:58:47;;;;;;;20.38;7.60;;;15.70;78.20;;;;;;5032240;28;20398;-72
2023/08/04 03:01:13;;;;;;;14.07;6.20;;;15.70;78.30;;;;;;5032249;28;20375;-73
2023/08/04 03:03:39;;;;;;;15.80;6.97;;;15.70;78.60;;;;;;5032302;28;20391;-72
2023/08/04 03:06:05;;;;;;;16.08;6.80;;;15.70;79.30;;;;;;5032447;28;20394;-72
2023/08/04 03:08:31;;;;;;;14.70;6.40;;;15.60;79.80;;;;;;5032289;28;20445;-72
2023/08/04 03:10:57;;;;;;;23.10;7.00;;;15.60;80.60;;;;;;5032148;28;20379;-73
2023/08/04 03:13:23;;;;;;;14.65;6.78;;;15.60;81.40;;;;;;5031675;28;20419;-72
2023/08/04 03:16:00;;;;;;;21.10;6.70;;;15.60;81.10;;;;;;5032105;28;20736;-73
2023/08/04 03:18:26;;;;;;;19.70;7.40;;;15.60;81.00;;;;;;5031812;28;20790;-72
2023/08/04 03:20:52;;;;;;;23.73;7.10;;;15.60;82.00;;;;;;5032010;28;20433;-72
2023/08/04 03:23:18;;;;;;;21.38;8.50;;;15.60;81.50;;;;;;5031603;28;20390;-73
2023/08/04 03:25:44;;;;;;;28.52;9.20;;;15.60;83.30;;;;;;5031596;28;20379;-72
2023/08/04 03:28:10;;;;;;;23.58;8.80;;;15.70;82.80;;;;;;5031499;28;20398;-73
2023/08/04 03:30:35;;;;;;;22.10;9.45;;;15.80;81.70;;;;;;5013758;28;20387;-73
2023/08/04 03:33:01;;;;;;;22.50;10.00;;;15.70;82.50;;;;;;5031322;28;20411;-73
2023/08/04 03:35:26;;;;;;;19.63;9.40;;;15.80;79.70;;;;;;5031309;28;20950;-73
2023/08/04 03:37:52;;;;;;;20.80;8.77;;;15.80;78.50;;;;;;5013772;28;20779;-73
2023/08/04 03:40:17;;;;;;;19.67;8.32;;;15.60;82.70;;;;;;5031351;28;20391;-73
2023/08/04 03:42:43;;;;;;;21.20;7.67;;;15.50;85.30;;;;;;5030963;28;20823;-72
2023/08/04 03:45:09;;;;;;;19.23;7.57;;;15.50;84.90;;;;;;5031221;28;20436;-72
2023/08/04 03:47:34;;;;;;;24.33;8.20;;;15.70;83.90;;;;;;5031387;28;20422;-73
2023/08/04 03:50:02;;;;;;;22.00;8.27;;;15.60;84.70;;;;;;5031164;28;20387;-73
2023/08/04 03:52:27;;;;;;;22.33;8.43;;;15.70;83.30;;;;;;5030746;28;20537;-72
2023/08/04 03:54:53;;;;;;;19.00;7.30;;;15.80;81.60;;;;;;5030934;28;20489;-72
2023/08/04 03:57:18;;;;;;;19.40;7.90;;;15.70;82.50;;;;;;5013140;28;20383;-73
2023/08/04 03:59:44;;;;;;;24.60;8.43;;;15.60;83.60;;;;;;5030860;28;20886;-73
2023/08/04 04:02:09;;;;;;;20.93;7.50;;;15.80;84.10;;;;;;5013122;28;20383;-73
2023/08/04 04:04:35;;;;;;;23.80;7.67;;;15.90;80.90;;;;;;5031182;28;20382;-73
2023/08/04 04:07:00;;;;;;;15.07;7.25;;;16.00;79.00;;;;;;5031199;28;20390;-73
2023/08/04 04:09:26;;;;;;;21.10;8.07;;;16.00;77.60;;;;;;5031373;28;20457;-73
2023/08/04 04:11:51;;;;;;;22.27;8.90;;;16.10;76.30;;;;;;5031586;28;20390;-73
2023/08/04 04:14:17;;;;;;;26.03;10.50;;;16.00;77.70;;;;;;5013778;28;20472;-73
2023/08/04 04:16:42;;;;;;;23.80;10.35;;;16.10;76.90;;;;;;5031207;28;20823;-73
2023/08/04 04:19:08;;;;;;;24.80;10.97;;;16.20;74.50;;;;;;5031348;28;20871;-73
2023/08/04 04:21:34;;;;;;;22.30;10.43;;;16.20;74.60;;;;;;5031726;28;20390;-73
2023/08/04 04:23:59;;;;;;;26.25;9.73;;;16.20;74.70;;;;;;5032688;28;20375;-73
2023/08/04 04:26:25;;;;;;;22.15;9.07;;;16.20;75.20;;;;;;5032694;28;20383;-73
2023/08/04 04:28:50;;;;;;;20.73;8.80;;;16.20;74.80;;;;;;5032353;28;20387;-73
2023/08/04 04:31:16;;;;;;;23.37;8.27;;;16.20;75.10;;;;;;5014614;28;20386;-73
2023/08/04 04:33:42;;;;;;;20.90;8.38;;;16.20;74.90;;;;;;5014567;28;20721;-73
2023/08/04 04:36:07;;;;;;;17.90;8.10;;;16.30;73.80;;;;;;5032012;28;20528;-73
2023/08/04 04:38:33;;;;;;;23.05;8.25;;;16.10;75.90;;;;;;5031412;28;20382;-73
2023/08/04 04:41:00;;;;;;;18.23;6.97;;;16.10;76.50;;;;;;5030508;28;20816;-72
2023/08/04 04:43:26;;;;;;;17.58;7.53;;;16.20;76.90;;;;;;5030718;28;20415;-72
2023/08/04 04:45:52;;;;;;;23.60;8.77;;;16.30;73.90;;;;;;5031139;28;20383;-72
2023/08/04 04:48:19;;;;;;;21.70;8.65;;;16.30;72.90;;;;;;5033983;28;20409;-71
2023/08/04 04:50:45;;;;;;;22.77;8.68;;;16.40;69.70;;;;;;5034858;28;20845;-73
2023/08/04 04:53:11;;;;;;;17.58;8.00;;;16.40;70.10;;;;;;5034843;28;20403;-72
2023/08/04 04:55:36;;;;;;;22.30;7.90;;;16.30;71.90;;;;;;5035426;28;20386;-72
2023/08/04 04:58:02;;;;;;;14.93;7.50;;;16.30;73.00;;;;;;5034996;28;20410;-72
2023/08/04 05:00:28;;;;;;;22.55;8.38;;;16.20;73.80;;;;;;5034686;28;20864;-72
2023/08/04 05:02:53;;;;;;;24.33;8.30;;;16.20;76.10;;;;;;5034750;28;20471;-73
2023/08/04 05:05:19;;;;;;;22.85;8.20;;;16.50;70.70;;;;;;5035597;28;20385;-72
2023/08/04 05:07:44;;;;;;;17.20;7.30;;;16.50;70.30;;;;;;5034931;28;20387;-72
2023/08/04 05:10:10;;;;;;;23.45;7.90;;;16.50;70.10;;;;;;5035629;28;20391;-72
2023/08/04 05:12:36;;;;;;;18.52;7.25;;;16.70;66.40;;;;;;5035301;28;20446;-73
2023/08/04 05:15:02;;;;;;;25.98;7.78;;;16.70;66.30;;;;;;5018209;28;20395;-72
2023/08/04 05:17:27;;;;;;;20.42;6.80;;;16.50;67.40;;;;;;5035976;28;20387;-72
2023/08/04 05:19:53;;;;;;;20.92;7.65;;;16.50;69.00;;;;;;5034913;28;20431;-74
2023/08/04 05:22:19;;;;;;;18.73;6.80;;;16.60;67.70;;;;;;5034777;28;20855;-72
2023/08/04 05:24:44;;;;;;;19.45;7.75;;;16.60;66.90;;;;;;5034607;28;20379;-73
2023/08/04 05:27:10;;;;;;;24.17;7.17;;;16.80;66.60;;;;;;5033450;28;20488;-73
2023/08/04 05:29:36;;;;;;;15.90;6.80;;;16.80;64.80;;;;;;5034689;28;20470;-72
2023/08/04 05:32:01;;;;;;;18.92;7.28;;;16.80;66.30;;;;;;5036289;28;20393;-74
2023/08/04 05:34:27;;;;;;;19.87;7.27;;;16.80;65.10;;;;;;5035790;28;20486;-73
2023/08/04 05:36:52;;;;;;;19.43;7.47;;;16.80;65.00;;;;;;5017834;28;20387;-72
2023/08/04 05:39:18;;;;;;;17.73;6.97;;;16.90;63.00;;;;;;5034421;28;20498;-72
2023/08/04 05:41:45;;;;;;;23.25;8.10;;;17.10;60.70;;;;;;5015716;28;20581;-72
2023/08/04 05:44:11;;;;;;;23.10;8.25;;;17.20;59.80;;;;;;5033516;28;20391;-72
2023/08/04 05:46:37;;;;;;;22.13;7.68;;;17.10;61.00;;;;;;5034323;28;20449;-73
2023/08/04 05:49:03;;;;;;;18.50;6.88;;;17.20;60.30;;;;;;5034111;28;20417;-74
2023/08/04 05:51:28;;;;;;;16.17;6.80;;;17.30;58.70;;;;;;5016150;28;20817;-73
2023/08/04 05:53:54;;;;;;;19.70;7.60;;;17.30;58.60;;;;;;5034664;28;20501;-73
2023/08/04 05:56:19;;;;;;;14.50;6.30;;;17.30;59.00;;;;;;5033499;28;20704;-73
2023/08/04 05:58:45;;;;;;;19.70;7.13;;;17.40;59.20;;;;;;5033568;28;20422;-71
2023/08/04 06:01:10;;;;;;;17.13;7.00;;;17.50;57.50;;;;;;5034579;28;20462;-72
2023/08/04 06:03:36;;;;;;;14.50;6.80;;;17.50;57.60;;;;;;5018642;28;20390;-72
2023/08/04 06:06:01;;;;;;;19.75;7.50;;;17.50;56.90;;;;;;5037088;28;20387;-72
2023/08/04 06:08:27;;;;;;;16.67;7.15;;;17.50;55.90;;;;;;5038001;28;20387;-72
2023/08/04 06:10:52;;;;;;;18.07;7.27;;;17.50;56.20;;;;;;5033212;28;20474;-72
2023/08/04 06:13:19;;;;;;;16.00;6.70;;;17.50;57.10;;;;;;5033114;28;20834;-73
2023/08/04 06:15:45;;;;;;;16.67;6.70;;;17.50;57.00;;;;;;5033230;28;20812;-72
2023/08/04 06:18:11;;;;;;;15.50;6.40;;;17.60;55.60;;;;;;5033101;28;20379;-72
2023/08/04 06:20:37;;;;;;;15.15;6.78;;;17.60;55.30;;;;;;5033459;28;20386;-73
2023/08/04 06:23:02;;;;;;;20.48;6.82;;;17.70;55.00;;;;;;5032987;28;20394;-73
2023/08/04 06:25:28;;;;;;;20.37;7.47;;;17.80;54.50;;;;;;5035796;28;20395;-73
2023/08/04 06:27:53;;;;;;;18.73;8.10;;;17.90;53.20;;;;;;5039121;28;20394;-73
2023/08/04 06:30:19;;;;;;;15.50;7.50;;;17.90;52.70;;;;;;5037286;28;20383;-73
2023/08/04 06:32:47;;;;;;;14.23;6.50;;;17.80;53.20;;;;;;5037122;28;20410;-73
2023/08/04 06:35:12;;;;;;;17.27;6.90;;;17.80;53.90;;;;;;5042481;28;20383;-72
2023/08/04 06:37:38;;;;;;;24.02;7.35;;;17.70;54.80;;;;;;5033216;28;20386;-72
2023/08/04 06:40:04;;;;;;;17.30;6.93;;;17.80;54.50;;;;;;5033151;28;20791;-72
2023/08/04 06:42:30;;;;;;;19.60;7.20;;;17.80;53.80;;;;;;5032812;28;20394;-73
2023/08/04 06:44:56;;;;;;;24.13;7.25;;;17.80;54.40;;;;;;5032731;28;20387;-73
2023/08/04 06:47:21;;;;;;;17.92;7.40;;;17.80;54.00;;;;;;5032547;28;20422;-72
2023/08/04 06:49:47;;;;;;;26.50;8.40;;;17.80;55.30;;;;;;5032744;28;20475;-72
2023/08/04 06:52:13;;;;;;;19.67;7.87;;;17.60;56.00;;;;;;5031936;28;20383;-73
2023/08/04 06:54:38;;;;;;;23.27;8.67;;;17.50;57.20;;;;;;5032860;28;20383;-74
2023/08/04 06:57:05;;;;;;;15.82;8.32;;;17.40;59.20;;;;;;5032345;28;20394;-72
2023/08/04 06:59:30;;;;;;;22.52;8.13;;;17.40;61.00;;;;;;5032453;28;20422;-72
2023/08/04 07:01:56;;;;;;;17.37;8.10;;;17.50;60.30;;;;;;5031984;28;20797;-72
2023/08/04 07:04:21;;;;;;;19.80;7.70;;;17.70;60.50;;;;;;5032049;28;20466;-73
2023/08/04 07:06:47;;;;;;;20.17;8.15;;;17.80;57.70;;;;;;5031887;28;20391;-72
2023/08/04 07:09:13;;;;;;;16.77;7.77;;;17.90;56.60;;;;;;5013802;28;20402;-73
2023/08/04 07:11:38;;;;;;;25.05;8.13;;;18.00;56.60;;;;;;5030923;28;20395;-72
2023/08/04 07:14:04;;;;;;;19.90;8.07;;;18.20;55.90;;;;;;5032135;28;20415;-72
2023/08/04 07:16:30;;;;;;;18.30;7.70;;;18.50;53.10;;;;;;5032164;28;20390;-73
2023/08/04 07:18:55;;;;;;;23.03;8.27;;;18.60;52.40;;;;;;5014343;28;20726;-72
2023/08/04 07:21:21;;;;;;;23.73;8.35;;;18.70;52.00;;;;;;5031854;28;20383;-73
2023/08/04 07:23:46;;;;;;;21.77;9.40;;;18.80;51.00;;;;;;5032146;28;20391;-73
2023/08/04 07:26:12;;;;;;;18.43;8.43;;;18.90;49.30;;;;;;5031592;28;20457;-73
2023/08/04 07:28:38;;;;;;;20.05;8.80;;;19.10;49.50;;;;;;5031908;28;20387;-73
2023/08/04 07:31:05;;;;;;;20.92;9.10;;;19.50;48.00;;;;;;5031790;28;20955;-73
2023/08/04 07:33:30;;;;;;;17.65;7.65;;;19.70;45.80;;;;;;5033187;28;20717;-72
2023/08/04 07:35:56;;;;;;;20.30;8.73;;;19.70;45.30;;;;;;5032195;28;20398;-73
2023/08/04 07:38:23;;;;;;;18.58;8.10;;;19.50;47.20;;;;;;5032370;28;20383;-73
2023/08/04 07:40:49;;;;;;;17.65;7.60;;;19.40;48.80;;;;;;5032014;28;20899;-72
2023/08/04 07:43:15;;;;;;;22.63;8.48;;;19.40;49.10;;;;;;5031391;28;20426;-74
2023/08/04 07:45:41;;;;;;;18.85;7.40;;;19.30;48.60;;;;;;5031454;28;20394;-73
2023/08/04 07:48:07;;;;;;;18.30;8.63;;;19.50;46.10;;;;;;5030831;28;20398;-73
2023/08/04 07:50:36;;;;;;;21.77;8.75;;;19.70;45.70;;;;;;5031186;28;20399;-73
2023/08/04 07:53:02;;;;;;;21.50;7.70;;;19.70;46.60;;;;;;5030504;28;20418;-73
2023/08/04 07:55:28;;;;;;;19.98;8.20;;;19.70;44.70;;;;;;5031363;28;20410;-73
2023/08/04 07:57:54;;;;;;;17.37;7.93;;;19.60;46.10;;;;;;5030976;28;20959;-72
2023/08/04 08:00:19;;;;;;;26.40;8.13;;;19.80;46.30;;;;;;5030633;28;20469;-74
2023/08/04 08:02:45;;;;;;;18.38;7.80;;;19.90;45.90;;;;;;5030789;28;20477;-73
2023/08/04 08:05:11;;;;;;;16.80;7.43;;;19.80;44.10;;;;;;5030757;28;20417;-74
2023/08/04 08:07:37;;;;;;;24.30;8.13;;;19.80;46.90;;;;;;5030731;28;20392;-72
2023/08/04 08:10:03;;;;;;;21.25;8.50;;;19.80;43.80;;;;;;5030865;28;20813;-72
2023/08/04 08:12:29;;;;;;;21.65;7.57;;;19.50;44.70;;;;;;5030303;28;20883;-74
2023/08/04 08:14:55;;;;;;;18.45;7.93;;;19.30;46.00;;;;;;5031053;28;20399;-73
2023/08/04 08:17:21;;;;;;;17.52;7.70;;;19.10;48.00;;;;;;5031688;28;20387;-73
2023/08/04 08:19:47;;;;;;;17.83;8.32;;;19.00;49.50;;;;;;5031171;28;20398;-73
2023/08/04 08:22:12;;;;;;;22.10;8.53;;;19.00;49.80;;;;;;5030298;28;20445;-72
2023/08/04 08:24:38;;;;;;;18.33;8.13;;;18.90;50.40;;;;;;5031123;28;20414;-73
2023/08/04 08:27:03;;;;;;;16.13;8.30;;;19.00;50.40;;;;;;5031025;28;20894;-72
2023/08/04 08:29:29;;;;;;;18.42;8.30;;;19.00;48.50;;;;;;5043448;28;20384;-72
2023/08/04 08:31:54;;;;;;;23.73;8.67;;;19.00;49.70;;;;;;5048496;28;20406;-72
2023/08/04 08:34:20;;;;;;;17.33;8.20;;;19.00;51.00;;;;;;5048473;28;20424;-73
2023/08/04 08:36:46;;;;;;;16.17;7.30;;;19.20;48.10;;;;;;5050667;28;20407;-73
2023/08/04 08:39:11;;;;;;;16.30;6.93;;;19.60;45.50;;;;;;5049627;28;20450;-72
2023/08/04 08:41:37;;;;;;;12.97;6.67;;;19.70;43.00;;;;;;5044948;28;20428;-72
2023/08/04 08:44:02;;;;;;;15.00;5.95;;;20.30;41.40;;;;;;5048353;28;20399;-74
2023/08/04 08:46:29;;;;;;;13.73;6.23;;;21.00;39.40;;;;;;5046296;28;20389;-74
2023/08/04 08:48:58;;;;;;;12.60;5.03;;;21.30;36.50;;;;;;5046944;28;20406;-73
2023/08/04 08:51:25;;;;;;;16.52;5.00;;;21.20;34.10;;;;;;5044559;28;20395;-72
2023/08/04 08:53:52;;;;;;;11.87;5.03;;;21.20;35.50;;;;;;5043918;28;20406;-71
2023/08/04 08:56:18;;;;;;;16.42;5.95;;;21.20;35.50;;;;;;5044828;28;20446;-72
2023/08/04 08:58:44;;;;;;;11.47;5.07;;;21.20;35.70;;;;;;5044748;28;20393;-72
2023/08/04 09:01:10;;;;;;;13.50;5.30;;;20.90;37.10;;;;;;5044163;28;20398;-73
2023/08/04 09:03:36;;;;;;;10.40;5.00;;;20.90;37.40;;;;;;5045320;28;20387;-73
2023/08/04 09:06:02;;;;;;;13.17;5.80;;;20.80;36.30;;;;;;5044086;28;20391;-74
2023/08/04 09:08:29;;;;;;;12.85;5.30;;;20.50;37.90;;;;;;5045249;28;20390;-73
2023/08/04 09:10:56;;;;;;;16.03;5.40;;;20.40;38.90;;;;;;5044587;28;20391;-73
2023/08/04 09:13:22;;;;;;;16.80;5.80;;;20.20;39.50;;;;;;5044112;28;20410;-72
2023/08/04 09:16:02;;;;;;;20.53;5.30;;;20.20;38.80;;;;;;5045159;28;20387;-73
2023/08/04 09:18:33;;;;;;;13.40;5.18;;;20.30;37.80;;;;;;5044588;28;20383;-74
2023/08/04 09:21:17;;;;;;;14.25;5.00;;;20.50;36.10;;;;;;5046506;28;20383;-73
2023/08/04 09:23:47;;;;;;;9.15;4.32;;;20.50;36.10;;;;;;5044643;28;20387;-74
2023/08/04 09:26:13;;;;;;;16.90;4.80;;;20.50;35.80;;;;;;5026386;28;20403;-73
2023/08/04 09:28:39;;;;;;;13.63;4.70;;;20.50;35.60;;;;;;5044355;28;20868;-75
2023/08/04 09:31:09;;;;;;;15.20;5.10;;;20.50;36.20;;;;;;5025023;28;20403;-73
2023/08/04 09:33:41;;;;;;;12.13;5.00;;;20.70;35.70;;;;;;5043112;28;20522;-73
2023/08/04 09:36:08;;;;;;;14.32;4.70;;;20.90;35.00;;;;;;5047453;28;20462;-73
2023/08/04 09:38:35;;;;;;;11.27;4.20;;;20.80;35.30;;;;;;5047492;28;20384;-73
2023/08/04 09:41:12;;;;;;;7.72;4.25;;;20.60;34.50;;;;;;5047681;28;20442;-73
2023/08/04 09:43:48;;;;;;;11.85;5.00;;;20.60;35.40;;;;;;5050170;28;20405;-73
2023/08/04 09:46:16;;;;;;;10.05;4.57;;;20.60;34.60;;;;;;5049385;28;20387;-73
2023/08/04 09:48:42;;;;;;;17.73;5.22;;;20.50;35.10;;;;;;5050497;28;20394;-74
2023/08/04 09:51:15;;;;;;;9.83;4.33;;;20.50;35.20;;;;;;5053392;28;20445;-72
2023/08/04 09:53:47;;;;;;;15.27;4.95;;;20.50;34.80;;;;;;5054597;28;20415;-74
2023/08/04 09:56:14;;;;;;;11.25;4.60;;;20.60;35.50;;;;;;5053789;28;20469;-72
2023/08/04 09:58:41;;;;;;;13.00;4.78;;;21.00;32.60;;;;;;5053683;28;20530;-74
2023/08/04 10:01:07;;;;;;;11.25;4.53;;;21.40;31.50;;;;;;5048143;28;20406;-73
2023/08/04 10:03:37;;;;;;;14.68;5.43;;;21.70;32.80;;;;;;5033978;28;20490;-74
2023/08/04 10:06:03;;;;;;;12.07;4.70;;;22.00;31.00;;;;;;5035150;28;20891;-72
2023/08/04 10:08:39;;;;;;;13.60;5.00;;;22.30;30.20;;;;;;5016114;28;20391;-73
2023/08/04 10:11:06;;;;;;;11.23;4.30;;;22.60;29.20;;;;;;5034607;28;20383;-75
2023/08/04 10:13:34;;;;;;;10.63;4.15;;;22.80;28.00;;;;;;5040958;28;20407;-73
2023/08/04 10:16:03;;;;;;;8.43;3.80;;;23.00;26.90;;;;;;5020849;28;20907;-73
2023/08/04 10:18:50;;;;;;;7.90;3.93;;;22.90;25.70;;;;;;5034348;28;20463;-74
2023/08/04 10:21:22;;;;;;;10.95;4.13;;;23.20;26.00;;;;;;5034780;28;20393;-74
2023/08/04 10:23:51;;;;;;;7.43;3.30;;;23.00;26.00;;;;;;5033879;28;20383;-75
2023/08/04 10:26:17;;;;;;;6.13;3.40;;;22.30;23.20;;;;;;5034800;28;20391;-73
2023/08/04 10:29:10;;;;;;;6.80;3.88;;;22.20;22.50;;;;;;5035908;28;20383;-73
2023/08/04 10:31:59;;;;;;;6.70;4.03;;;22.10;26.20;;;;;;5035371;28;20379;-73
2023/08/04 10:34:28;;;;;;;8.55;3.70;;;22.20;26.30;;;;;;5041984;28;20411;-74
2023/08/04 10:37:06;;;;;;;5.43;3.60;;;22.90;24.30;;;;;;5033709;28;20750;-74
2023/08/04 10:39:35;;;;;;;5.47;3.10;;;23.80;20.90;;;;;;5035338;28;20379;-73
2023/08/04 10:42:11;;;;;;;4.82;3.13;;;24.00;18.40;;;;;;5035645;28;20466;-74
2023/08/04 10:45:02;;;;;;;6.43;3.65;;;24.10;19.60;;;;;;5017075;28;20395;-74
2023/08/04 10:47:51;;;;;;;6.40;3.60;;;23.60;20.10;;;;;;5033561;28;20391;-74
2023/08/04 10:50:16;;;;;;;9.77;4.15;;;23.20;23.50;;;;;;5033570;28;20398;-72
2023/08/04 10:52:43;;;;;;;8.30;3.60;;;23.70;21.80;;;;;;5015175;28;20407;-74
2023/08/04 10:55:11;;;;;;;7.47;3.60;;;24.10;21.50;;;;;;5032771;28;20381;-74
2023/08/04 10:57:38;;;;;;;5.85;3.70;;;24.30;20.10;;;;;;5033244;28;20391;-73
2023/08/04 11:00:06;;;;;;;11.00;3.90;;;24.40;20.70;;;;;;5033207;28;20487;-73
2023/08/04 11:02:32;;;;;;;7.57;3.70;;;24.60;20.80;;;;;;5034060;28;20390;-74
2023/08/04 11:04:59;;;;;;;5.95;3.22;;;24.40;19.10;;;;;;5033158;28;20458;-74
2023/08/04 11:07:25;;;;;;;5.80;2.92;;;24.00;19.80;;;;;;5015270;28;20479;-73
2023/08/04 11:09:52;;;;;;;8.07;3.50;;;24.00;20.40;;;;;;5032719;28;20415;-73
2023/08/04 11:12:18;;;;;;;8.57;3.50;;;23.80;21.30;;;;;;5032750;28;20418;-72
2023/08/04 11:14:44;;;;;;;9.40;4.03;;;23.70;22.20;;;;;;5032895;28;20387;-73
2023/08/04 11:17:17;;;;;;;10.85;3.85;;;23.60;22.50;;;;;;5032530;28;20717;-74
2023/08/04 11:19:48;;;;;;;9.35;4.10;;;23.70;23.40;;;;;;5032253;28;20473;-73
2023/08/04 11:22:16;;;;;;;9.02;3.83;;;23.70;22.70;;;;;;5031729;28;20382;-73
2023/08/04 11:24:43;;;;;;;7.93;3.40;;;23.90;22.90;;;;;;5032063;28;20386;-73
2023/08/04 11:27:13;;;;;;;8.52;3.67;;;23.80;21.60;;;;;;5032158;28;20394;-74
2023/08/04 11:29:39;;;;;;;9.82;3.63;;;23.70;20.00;;;;;;5032334;28;20466;-73
2023/08/04 11:32:20;;;;;;;7.40;3.80;;;23.80;20.40;;;;;;5013656;28;20474;-75
2023/08/04 11:34:45;;;;;;;4.60;3.20;;;24.30;19.70;;;;;;5032013;28;20398;-73
2023/08/04 11:37:11;;;;;;;5.10;3.03;;;24.50;18.60;;;;;;5032107;28;20379;-74
2023/08/04 11:39:38;;;;;;;6.57;3.70;;;24.90;17.50;;;;;;5039286;28;20402;-73
2023/08/04 11:42:12;;;;;;;6.15;3.40;;;25.10;19.20;;;;;;5051876;28;20381;-74
2023/08/04 11:44:42;;;;;;;7.30;3.30;;;24.70;19.20;;;;;;5051842;28;20893;-74
2023/08/04 11:47:10;;;;;;;6.85;3.90;;;25.00;17.40;;;;;;5051521;28;20564;-75
2023/08/04 11:49:36;;;;;;;5.93;3.55;;;25.00;17.30;;;;;;5034192;28;20389;-74
2023/08/04 11:52:11;;;;;;;6.80;3.20;;;25.10;18.10;;;;;;5048535;28;20404;-75
2023/08/04 11:54:51;;;;;;;4.15;2.85;;;25.10;17.70;;;;;;5049476;28;20397;-75
2023/08/04 11:57:18;;;;;;;12.93;2.97;;;24.80;18.40;;;;;;5039125;28;20756;-73
2023/08/04 11:59:47;;;;;;;6.85;2.85;;;24.20;19.10;;;;;;5049140;28;20382;-75
2023/08/04 12:02:13;;;;;;;6.80;3.05;;;23.70;20.80;;;;;;5012494;28;20393;-74
2023/08/04 12:04:38;;;;;;;6.23;2.80;;;23.30;20.70;;;;;;5029203;28;20409;-74
2023/08/04 12:07:05;;;;;;;6.43;2.80;;;23.30;22.50;;;;;;5050728;28;20459;-74
2023/08/04 12:09:31;;;;;;;8.75;3.05;;;22.70;22.50;;;;;;5049384;28;20591;-74
2023/08/04 12:11:57;;;;;;;5.25;3.05;;;22.50;24.00;;;;;;5049391;28;20669;-74
2023/08/04 12:14:23;;;;;;;7.77;3.40;;;22.40;24.60;;;;;;5048873;28;20824;-73
2023/08/04 12:16:56;;;;;;;6.35;3.80;;;22.30;24.20;;;;;;5050398;28;20385;-73
2023/08/04 12:19:24;;;;;;;8.32;3.70;;;22.30;24.80;;;;;;5046644;28;20393;-73
2023/08/04 12:21:51;;;;;;;6.68;3.08;;;22.20;24.00;;;;;;5051507;28;20405;-72
2023/08/04 12:24:16;;;;;;;5.13;2.20;;;22.20;23.20;;;;;;5033380;28;20390;-71
2023/08/04 12:26:42;;;;;;;5.87;2.60;;;22.20;22.70;;;;;;5051369;28;20396;-73
2023/08/04 12:29:09;;;;;;;4.40;2.60;;;22.10;22.30;;;;;;5051486;28;20404;-72
2023/08/04 12:31:35;;;;;;;4.95;3.00;;;22.10;22.80;;;;;;5049996;28;20382;-73
2023/08/04 12:34:01;;;;;;;8.45;2.90;;;22.30;21.80;;;;;;5049454;28;20465;-74
2023/08/04 12:36:27;;;;;;;8.05;4.68;;;22.60;21.30;;;;;;5049952;28;20500;-73
2023/08/04 12:38:52;;;;;;;4.40;3.30;;;22.70;21.50;;;;;;5049680;28;20377;-71